createdAt,value
2022-08-16T00:00:03.238Z,100454.41
2022-08-16T00:02:33.569Z,100453.16
2022-08-16T00:05:01.983Z,100449.75
2022-08-16T00:07:30.107Z,100445.16
2022-08-16T00:09:59.011Z,100448.56
2022-08-16T00:12:30.892Z,100445.78
2022-08-16T00:15:02.513Z,100436.97
2022-08-16T00:17:56.612Z,100441.97
2022-08-16T00:20:20.936Z,100445.38
2022-08-16T00:22:51.460Z,100453.13
2022-08-16T00:25:21.599Z,100436.97
2022-08-16T00:28:11.818Z,100440.03
2022-08-16T00:30:41.556Z,100440.72
2022-08-16T00:33:15.096Z,100448.22
2022-08-16T00:35:45.416Z,100441.88
2022-08-16T00:38:40.942Z,100438.59
2022-08-16T00:41:07.765Z,100441.44
2022-08-16T00:43:42.799Z,100439.81
2022-08-16T00:46:33.153Z,100433.22
2022-08-16T00:49:03.302Z,100434.66
2022-08-16T00:51:31.970Z,100425.03
2022-08-16T00:54:00.144Z,100421.78
2022-08-16T00:56:58.241Z,100424.63
2022-08-16T00:59:24.756Z,100417.44
2022-08-16T01:01:54.753Z,100425.72
2022-08-16T01:04:29.975Z,100415.81
2022-08-16T01:07:02.124Z,100420.28
2022-08-16T01:09:34.207Z,100419.72
2022-08-16T01:12:04.303Z,100420.28
2022-08-16T01:14:43.446Z,100422.03
2022-08-16T01:17:14.876Z,100427.25
2022-08-16T01:19:47.344Z,100419.47
2022-08-16T01:22:49.802Z,100423.19
2022-08-16T01:25:33.841Z,100416.59
2022-08-16T01:28:05.902Z,100423.88
2022-08-16T01:30:40.182Z,100428.84
2022-08-16T01:33:20.299Z,100432.69
2022-08-16T01:35:56.465Z,100432.16
2022-08-16T01:38:28.222Z,100428.38
2022-08-16T01:41:02.488Z,100426.69
2022-08-16T01:43:33.055Z,100432.81
2022-08-16T01:46:31.179Z,100432.81
2022-08-16T01:48:56.861Z,100434.53
2022-08-16T01:51:26.644Z,100438.63
2022-08-16T01:53:55.944Z,100440.25
2022-08-16T01:56:38.934Z,100439.22
2022-08-16T01:59:15.790Z,100440.84
2022-08-16T02:01:52.664Z,100430.13
2022-08-16T02:04:49.567Z,100441.19
2022-08-16T02:07:23.486Z,100438.19
2022-08-16T02:09:58.892Z,100449.13
2022-08-16T02:12:51.286Z,100439.00
2022-08-16T02:15:26.519Z,100443.34
2022-08-16T02:17:58.485Z,100441.25
2022-08-16T02:20:27.884Z,100438.41
2022-08-16T02:22:56.767Z,100439.44
2022-08-16T02:25:25.353Z,100427.56
2022-08-16T02:28:17.178Z,100421.84
2022-08-16T02:30:50.892Z,100424.38
2022-08-16T02:33:20.680Z,100426.31
2022-08-16T02:35:58.360Z,100418.19
2022-08-16T02:38:31.468Z,100414.47
2022-08-16T02:41:01.907Z,100414.13
2022-08-16T02:43:33.452Z,100412.47
2022-08-16T02:46:08.109Z,100414.81
2022-08-16T02:48:39.584Z,100428.56
2022-08-16T02:51:18.158Z,100444.00
2022-08-16T02:53:48.583Z,100437.38
2022-08-16T02:56:18.738Z,100442.88
2022-08-16T02:58:50.783Z,100445.34
2022-08-16T03:01:25.445Z,100448.84
2022-08-16T03:04:41.471Z,100451.09
2022-08-16T03:06:59.253Z,100442.59
2022-08-16T03:09:44.635Z,100442.88
2022-08-16T03:12:16.514Z,100436.22
2022-08-16T03:17:19.062Z,100435.50
2022-08-16T03:19:59.844Z,100428.13
2022-08-16T03:22:33.784Z,100432.00
2022-08-16T03:25:10.267Z,100436.91
2022-08-16T03:27:41.010Z,100437.22
2022-08-16T03:30:18.936Z,100430.38
2022-08-16T03:32:53.119Z,100431.50
2022-08-16T03:35:33.048Z,100436.16
2022-08-16T03:38:33.158Z,100437.50
2022-08-16T03:40:56.318Z,100435.44
2022-08-16T03:43:51.326Z,100442.38
2022-08-16T03:46:48.287Z,100439.63
2022-08-16T03:49:12.495Z,100433.34
2022-08-16T03:51:44.049Z,100427.00
2022-08-16T03:54:19.474Z,100428.44
2022-08-16T03:56:56.853Z,100430.09
2022-08-16T03:59:25.837Z,100428.22
2022-08-16T04:02:01.954Z,100427.56
2022-08-16T04:04:33.948Z,100428.56
2022-08-16T04:07:07.400Z,100430.25
2022-08-16T04:09:39.723Z,100432.69
2022-08-16T04:12:54.347Z,100434.94
2022-08-16T04:15:02.902Z,100434.09
2022-08-16T04:17:39.978Z,100453.66
2022-08-16T04:20:31.103Z,100450.09
2022-08-16T04:23:00.996Z,100451.50
2022-08-16T04:25:31.492Z,100448.75
2022-08-16T04:28:52.122Z,100452.06
2022-08-16T04:30:50.517Z,100449.63
2022-08-16T04:33:26.981Z,100450.44
2022-08-16T04:35:59.363Z,100461.69
2022-08-16T04:38:34.522Z,100458.44
2022-08-16T04:41:04.143Z,100460.66
2022-08-16T04:43:38.497Z,100462.88
2022-08-16T04:46:35.362Z,100465.72
2022-08-16T04:49:08.450Z,100470.13
2022-08-16T04:51:36.719Z,100468.19
2022-08-16T04:54:08.298Z,100462.34
2022-08-16T04:56:42.894Z,100471.16
2022-08-16T04:59:14.554Z,100465.97
2022-08-16T05:01:56.070Z,100466.78
2022-08-16T05:04:30.080Z,100464.91
2022-08-16T05:06:59.613Z,100480.31
2022-08-16T05:09:45.200Z,100472.03
2022-08-16T05:12:22.269Z,100477.56
2022-08-16T05:15:02.738Z,100475.06
2022-08-16T05:17:34.925Z,100475.13
2022-08-16T05:20:38.603Z,100483.94
2022-08-16T05:23:00.124Z,100482.78
2022-08-16T05:25:40.717Z,100486.38
2022-08-16T05:28:17.111Z,100479.16
2022-08-16T05:30:51.279Z,100492.72
2022-08-16T05:33:26.384Z,100487.50
2022-08-16T05:35:59.044Z,100489.44
2022-08-16T05:38:39.196Z,100499.88
2022-08-16T05:41:10.461Z,100500.97
2022-08-16T05:43:46.863Z,100498.75
2022-08-16T05:46:30.467Z,100498.81
2022-08-16T05:49:09.096Z,100492.25
2022-08-16T05:51:42.918Z,100493.63
2022-08-16T05:54:24.805Z,100498.53
2022-08-16T05:56:56.110Z,100500.75
2022-08-16T05:59:27.435Z,100508.28
2022-08-16T06:01:57.210Z,100502.16
2022-08-16T06:04:36.044Z,100503.25
2022-08-16T06:07:09.639Z,100497.19
2022-08-16T06:09:59.902Z,100488.91
2022-08-16T06:12:31.471Z,100490.25
2022-08-16T06:15:08.012Z,100489.94
2022-08-16T06:17:43.319Z,100501.72
2022-08-16T06:20:23.087Z,100500.19
2022-08-16T06:22:58.582Z,100496.91
2022-08-16T06:25:39.538Z,100500.19
2022-08-16T06:28:17.226Z,100509.59
2022-08-16T06:31:01.356Z,100505.66
2022-08-16T06:33:42.052Z,100509.28
2022-08-16T06:36:14.188Z,100511.53
2022-08-16T06:38:55.978Z,100513.91
2022-08-16T06:41:45.224Z,100521.38
2022-08-16T06:44:40.963Z,100520.50
2022-08-16T06:47:24.257Z,100519.97
2022-08-16T06:50:22.296Z,100523.25
2022-08-16T06:53:06.822Z,100524.28
2022-08-16T06:55:59.389Z,100526.59
2022-08-16T06:58:36.921Z,100532.34
2022-08-16T07:01:15.050Z,100527.06
2022-08-16T07:03:55.067Z,100529.97
2022-08-16T07:06:27.286Z,100524.69
2022-08-16T07:09:00.635Z,100534.00
2022-08-16T07:11:45.823Z,100533.47
2022-08-16T07:14:25.760Z,100539.38
2022-08-16T07:16:59.251Z,100534.88
2022-08-16T07:20:01.323Z,100536.63
2022-08-16T07:22:37.771Z,100532.06
2022-08-16T07:25:16.827Z,100529.97
2022-08-16T07:27:47.057Z,100537.53
2022-08-16T07:30:39.420Z,100534.69
2022-08-16T07:33:52.866Z,100544.16
2022-08-16T07:36:10.073Z,100545.28
2022-08-16T07:38:44.434Z,100550.91
2022-08-16T07:41:14.607Z,100539.63
2022-08-16T07:43:48.933Z,100546.94
2022-08-16T07:46:38.139Z,100556.03
2022-08-16T07:49:14.857Z,100554.59
2022-08-16T07:51:47.127Z,100554.50
2022-08-16T07:54:21.252Z,100564.25
2022-08-16T07:57:00.869Z,100553.59
2022-08-16T07:59:46.221Z,100556.38
2022-08-16T08:02:19.978Z,100565.16
2022-08-16T08:04:49.305Z,100566.28
2022-08-16T08:07:17.560Z,100566.50
2022-08-16T08:09:46.649Z,100568.00
2022-08-16T08:12:32.112Z,100563.00
2022-08-16T08:15:05.985Z,100565.97
2022-08-16T08:17:43.255Z,100578.78
2022-08-16T08:20:18.732Z,100576.53
2022-08-16T08:23:01.025Z,100577.97
2022-08-16T08:25:53.517Z,100583.00
2022-08-16T08:28:25.562Z,100587.63
2022-08-16T08:31:01.500Z,100593.69
2022-08-16T08:33:34.067Z,100601.75
2022-08-16T08:36:07.600Z,100606.91
2022-08-16T08:38:45.162Z,100614.47
2022-08-16T08:41:18.939Z,100617.53
2022-08-16T08:43:52.650Z,100617.88
2022-08-16T08:46:24.188Z,100619.59
2022-08-16T08:49:01.970Z,100628.59
2022-08-16T08:51:38.435Z,100625.31
2022-08-16T08:54:14.226Z,100634.13
2022-08-16T08:56:52.409Z,100634.56
2022-08-16T08:59:40.844Z,100625.53
2022-08-16T09:02:12.235Z,100640.00
2022-08-16T09:04:47.796Z,100641.19
2022-08-16T09:07:18.969Z,100636.78
2022-08-16T09:09:48.627Z,100640.78
2022-08-16T09:12:35.679Z,100641.50
2022-08-16T09:15:13.632Z,100636.78
2022-08-16T09:17:51.801Z,100641.59
2022-08-16T09:20:29.372Z,100640.47
2022-08-16T09:22:58.590Z,100647.34
2022-08-16T09:25:35.468Z,100651.97
2022-08-16T09:28:12.887Z,100652.66
2022-08-16T09:31:07.435Z,100660.25
2022-08-16T09:33:41.062Z,100651.50
2022-08-16T09:36:12.158Z,100648.44
2022-08-16T09:38:59.625Z,100650.88
2022-08-16T09:41:28.466Z,100644.09
2022-08-16T09:43:59.369Z,100648.00
2022-08-16T09:46:33.411Z,100651.63
2022-08-16T09:49:15.744Z,100645.84
2022-08-16T09:51:43.925Z,100646.06
2022-08-16T09:54:17.072Z,100648.81
2022-08-16T09:56:52.578Z,100654.66
2022-08-16T09:59:23.039Z,100653.00
2022-08-16T10:01:53.606Z,100660.25
2022-08-16T10:04:34.295Z,100666.22
2022-08-16T10:07:11.911Z,100669.22
2022-08-16T10:09:55.150Z,100673.69
2022-08-16T10:12:44.543Z,100657.13
2022-08-16T10:15:16.945Z,100676.88
2022-08-16T10:18:00.770Z,100672.81
2022-08-16T10:20:36.005Z,100688.38
2022-08-16T10:23:09.885Z,100691.66
2022-08-16T10:27:16.493Z,100682.59
2022-08-16T10:28:40.195Z,100697.63
2022-08-16T10:31:11.706Z,100706.09
2022-08-16T10:33:44.116Z,100711.41
2022-08-16T10:36:38.722Z,100718.06
2022-08-16T10:39:03.208Z,100718.41
2022-08-16T10:41:32.863Z,100717.97
2022-08-16T10:44:01.339Z,100724.03
2022-08-16T10:46:40.027Z,100714.53
2022-08-16T10:49:11.440Z,100722.13
2022-08-16T10:52:01.477Z,100733.78
2022-08-16T10:54:30.690Z,100730.06
2022-08-16T10:57:00.465Z,100724.31
2022-08-16T10:59:38.257Z,100715.28
2022-08-16T11:02:59.373Z,100720.59
2022-08-16T11:05:06.299Z,100708.88
2022-08-16T11:07:45.429Z,100726.63
2022-08-16T11:19:03.881Z,100763.59
2022-08-16T11:21:37.627Z,100759.50
2022-08-16T11:24:41.617Z,100758.09
2022-08-16T11:27:20.095Z,100750.94
2022-08-16T11:29:49.045Z,100762.56
2022-08-16T11:32:20.134Z,100766.97
2022-08-16T11:35:10.578Z,100760.88
2022-08-16T11:40:32.825Z,100767.50
2022-08-16T11:43:04.729Z,100766.34
2022-08-16T11:45:34.811Z,100769.06
2022-08-16T11:48:05.033Z,100775.06
2022-08-16T11:50:34.300Z,100766.75
2022-08-16T11:53:04.046Z,100763.41
2022-08-16T11:55:34.286Z,100763.38
2022-08-16T11:58:11.024Z,100756.38
2022-08-16T12:00:50.337Z,100756.63
2022-08-16T12:03:22.620Z,100757.97
2022-08-16T12:06:00.740Z,100766.72
2022-08-16T12:08:29.996Z,100768.44
2022-08-16T12:11:02.513Z,100755.94
2022-08-16T12:13:31.017Z,100754.53
2022-08-16T12:15:59.317Z,100748.38
2022-08-16T12:18:27.602Z,100745.91
2022-08-16T12:20:58.207Z,100753.06
2022-08-16T12:23:27.784Z,100754.38
2022-08-16T12:26:02.148Z,100752.78
2022-08-16T12:28:55.010Z,100751.13
2022-08-16T12:31:26.260Z,100758.75
2022-08-16T12:33:57.518Z,100756.41
2022-08-16T12:36:29.739Z,100757.34
2022-08-16T12:38:59.218Z,100750.00
2022-08-16T12:41:29.096Z,100747.75
2022-08-16T12:44:03.605Z,100745.44
2022-08-16T12:46:32.478Z,100736.31
2022-08-16T12:49:01.138Z,100746.28
2022-08-16T12:51:58.033Z,100744.75
2022-08-16T12:54:22.267Z,100744.81
2022-08-16T12:56:52.411Z,100752.38
2022-08-16T12:59:21.913Z,100746.41
2022-08-16T13:01:58.133Z,100742.84
2022-08-16T13:04:31.440Z,100743.63
2022-08-16T13:09:42.338Z,100745.22
2022-08-16T13:12:20.031Z,100736.19
2022-08-16T13:14:50.287Z,100745.25
2022-08-16T13:17:24.013Z,100745.47
2022-08-16T13:20:07.037Z,100735.81
2022-08-16T13:22:37.808Z,100735.97
2022-08-16T13:25:08.902Z,100730.75
2022-08-16T13:28:03.378Z,100731.91
2022-08-16T13:30:36.393Z,100735.59
2022-08-16T13:33:11.163Z,100726.91
2022-08-16T13:35:43.097Z,100727.50
2022-08-16T13:38:25.067Z,100731.25
2022-08-16T13:40:56.564Z,100728.41
2022-08-16T13:43:28.899Z,100729.25
2022-08-16T13:46:02.886Z,100725.34
2022-08-16T13:48:43.091Z,100721.25
2022-08-16T13:51:17.500Z,100721.38
2022-08-16T13:53:54.529Z,100725.94
2022-08-16T13:56:37.445Z,100720.28
2022-08-16T13:59:16.432Z,100724.69
2022-08-16T14:01:54.463Z,100718.94
2022-08-16T14:04:27.099Z,100726.25
2022-08-16T14:06:57.425Z,100714.91
2022-08-16T14:09:27.276Z,100716.09
2022-08-16T14:11:56.516Z,100703.16
2022-08-16T14:14:29.677Z,100711.97
2022-08-16T14:16:59.478Z,100707.09
2022-08-16T14:19:29.693Z,100710.59
2022-08-16T14:22:14.365Z,100720.44
2022-08-16T14:24:46.641Z,100714.63
2022-08-16T14:27:17.075Z,100710.16
2022-08-16T14:29:48.995Z,100708.91
2022-08-16T14:32:26.962Z,100703.16
2022-08-16T14:35:02.482Z,100705.22
2022-08-16T14:37:31.971Z,100693.72
2022-08-16T14:40:01.204Z,100688.09
2022-08-16T14:42:31.703Z,100695.78
2022-08-16T14:45:01.254Z,100695.44
2022-08-16T14:47:34.362Z,100711.38
2022-08-16T14:50:05.786Z,100704.09
2022-08-16T14:55:23.842Z,100711.56
2022-08-16T14:57:54.162Z,100713.69
2022-08-16T15:00:27.167Z,100722.66
2022-08-16T15:03:04.651Z,100726.16
2022-08-16T15:05:33.323Z,100711.63
2022-08-16T15:08:03.563Z,100711.63
2022-08-16T15:10:32.559Z,100708.94
2022-08-16T15:13:01.903Z,100707.56
2022-08-16T15:15:31.819Z,100709.66
2022-08-16T15:18:01.741Z,100711.56
2022-08-16T15:20:33.444Z,100712.03
2022-08-16T15:23:03.878Z,100704.78
2022-08-16T15:25:33.237Z,100702.53
2022-08-16T15:28:05.374Z,100711.38
2022-08-16T15:30:56.611Z,100716.28
2022-08-16T15:33:27.317Z,100720.28
2022-08-16T15:35:58.222Z,100717.06
2022-08-16T15:38:57.480Z,100719.75
2022-08-16T15:41:45.233Z,100720.72
2022-08-16T15:44:22.129Z,100718.28
2022-08-16T15:46:56.151Z,100713.31
2022-08-16T15:49:37.086Z,100717.13
2022-08-16T15:52:16.236Z,100715.19
2022-08-16T15:54:52.984Z,100705.09
2022-08-16T15:57:24.442Z,100703.84
2022-08-16T16:00:04.165Z,100709.72
2022-08-16T16:02:41.609Z,100700.06
2022-08-16T16:05:11.215Z,100700.03
2022-08-16T16:07:56.737Z,100704.56
2022-08-16T16:10:30.217Z,100706.91
2022-08-16T16:13:00.537Z,100702.84
2022-08-16T16:15:31.509Z,100706.72
2022-08-16T16:18:09.154Z,100714.56
2022-08-16T16:20:43.660Z,100714.06
2022-08-16T16:23:12.363Z,100712.88
2022-08-16T16:25:43.889Z,100706.28
2022-08-16T16:29:05.538Z,100703.44
2022-08-16T16:31:04.876Z,100711.22
2022-08-16T16:33:38.450Z,100710.03
2022-08-16T16:36:09.280Z,100700.91
2022-08-16T16:38:41.972Z,100707.78
2022-08-16T16:41:12.824Z,100703.53
2022-08-16T16:43:43.915Z,100704.66
2022-08-16T16:46:40.183Z,100705.09
2022-08-16T16:49:07.005Z,100706.81
2022-08-16T16:51:40.782Z,100704.56
2022-08-16T16:54:12.816Z,100711.53
2022-08-16T16:56:49.718Z,100708.97
2022-08-16T16:59:18.300Z,100708.97
2022-08-16T17:01:57.715Z,100713.59
2022-08-16T17:04:40.495Z,100714.75
2022-08-16T17:07:11.175Z,100714.63
2022-08-16T17:12:46.987Z,100694.16
2022-08-16T17:15:16.321Z,100705.41
2022-08-16T17:17:59.877Z,100694.16
2022-08-16T17:20:30.674Z,100694.16
2022-08-16T17:22:59.264Z,100698.53
2022-08-16T17:25:35.051Z,100695.97
2022-08-16T17:28:59.480Z,100702.41
2022-08-16T17:30:54.720Z,100694.72
2022-08-16T17:33:23.442Z,100703.22
2022-08-16T17:35:55.312Z,100707.63
2022-08-16T17:38:38.631Z,100712.94
2022-08-16T17:39:26.086Z,100705.75
2022-08-16T17:41:12.650Z,100716.53
2022-08-16T17:43:44.442Z,100708.75
2022-08-16T17:46:41.718Z,100714.31
2022-08-16T17:49:03.513Z,100709.97
2022-08-16T17:51:34.286Z,100711.09
2022-08-16T17:54:03.595Z,100703.75
2022-08-16T17:56:31.956Z,100704.03
2022-08-16T17:59:00.245Z,100709.56
2022-08-16T18:01:29.648Z,100716.31
2022-08-16T18:04:07.375Z,100706.28
2022-08-16T18:06:39.729Z,100713.47
2022-08-16T18:09:10.470Z,100705.69
2022-08-16T18:11:44.601Z,100705.53
2022-08-16T18:14:15.769Z,100710.84
2022-08-16T18:16:45.653Z,100718.09
2022-08-16T18:19:14.036Z,100715.84
2022-08-16T18:22:01.830Z,100714.22
2022-08-16T18:24:30.660Z,100714.28
2022-08-16T18:27:05.273Z,100720.28
2022-08-16T18:29:49.832Z,100724.94
2022-08-16T18:32:24.367Z,100720.28
2022-08-16T18:34:54.713Z,100728.91
2022-08-16T18:37:24.694Z,100724.53
2022-08-16T18:39:53.204Z,100721.44
2022-08-16T18:42:22.699Z,100723.44
2022-08-16T18:44:50.857Z,100734.50
2022-08-16T18:47:19.047Z,100737.81
2022-08-16T18:49:47.304Z,100734.56
2022-08-16T18:52:24.922Z,100728.28
2022-08-16T18:55:02.942Z,100739.72
2022-08-16T18:57:42.832Z,100734.19
2022-08-16T19:00:13.261Z,100747.47
2022-08-16T19:02:57.230Z,100741.34
2022-08-16T19:05:31.021Z,100750.22
2022-08-16T19:07:59.501Z,100764.63
2022-08-16T19:10:29.867Z,100775.91
2022-08-16T19:12:58.528Z,100778.97
2022-08-16T19:15:29.727Z,100777.91
2022-08-16T19:17:58.357Z,100781.25
2022-08-16T19:20:28.562Z,100782.34
2022-08-16T19:23:12.315Z,100788.97
2022-08-16T19:25:48.399Z,100795.63
2022-08-16T19:28:51.294Z,100786.81
2022-08-16T19:31:17.964Z,100799.25
2022-08-16T19:33:54.440Z,100800.16
2022-08-16T19:36:31.068Z,100805.16
2022-08-16T19:39:04.731Z,100803.78
2022-08-16T19:41:36.384Z,100811.00
2022-08-16T19:44:05.002Z,100802.25
2022-08-16T19:46:33.529Z,100807.00
2022-08-16T19:49:05.087Z,100817.28
2022-08-16T19:51:33.444Z,100824.69
2022-08-16T19:54:01.765Z,100831.38
2022-08-16T19:56:30.366Z,100822.56
2022-08-16T19:59:18.890Z,100828.66
2022-08-16T20:01:57.581Z,100835.88
2022-08-16T20:04:29.846Z,100847.22
2022-08-16T20:06:59.202Z,100834.00
2022-08-16T20:09:27.402Z,100844.47
2022-08-16T20:11:56.289Z,100842.84
2022-08-16T20:14:26.775Z,100848.13
2022-08-16T20:16:59.680Z,100853.91
2022-08-16T20:19:32.559Z,100855.84
2022-08-16T20:22:25.612Z,100847.59
2022-08-16T20:25:05.574Z,100854.22
2022-08-16T20:27:33.965Z,100855.31
2022-08-16T20:30:05.003Z,100852.56
2022-08-16T20:32:34.614Z,100850.91
2022-08-16T20:35:07.574Z,100852.56
2022-08-16T20:37:37.476Z,100841.53
2022-08-16T20:40:33.862Z,100844.81
2022-08-16T20:43:04.186Z,100839.88
2022-08-16T20:45:34.897Z,100834.38
2022-08-16T20:48:05.225Z,100845.41
2022-08-16T20:50:34.393Z,100839.88
2022-08-16T20:53:03.393Z,100829.44
2022-08-16T20:55:31.643Z,100831.06
2022-08-16T20:57:59.861Z,100831.63
2022-08-16T21:00:34.845Z,100835.75
2022-08-16T21:03:07.624Z,100836.84
2022-08-16T21:05:36.114Z,100836.84
2022-08-16T21:08:50.755Z,100829.44
2022-08-16T21:10:53.230Z,100839.63
2022-08-16T21:13:21.862Z,100834.41
2022-08-16T21:15:51.417Z,100831.91
2022-08-16T21:18:19.601Z,100840.50
2022-08-16T21:20:47.629Z,100836.66
2022-08-16T21:23:15.814Z,100838.81
2022-08-16T21:25:49.841Z,100844.91
2022-08-16T21:28:39.381Z,100836.13
2022-08-16T21:31:12.044Z,100836.69
2022-08-16T21:33:40.876Z,100824.59
2022-08-16T21:36:10.034Z,100835.88
2022-08-16T21:38:38.496Z,100834.28
2022-08-16T21:41:08.836Z,100828.53
2022-08-16T21:43:37.093Z,100848.91
2022-08-16T21:46:07.182Z,100848.41
2022-08-16T21:48:40.679Z,100842.63
2022-08-16T21:51:11.324Z,100845.72
2022-08-16T21:53:40.018Z,100846.28
2022-08-16T21:56:09.804Z,100841.34
2022-08-16T21:58:44.825Z,100845.47
2022-08-16T22:01:13.703Z,100854.56
2022-08-16T22:03:43.242Z,100850.19
2022-08-16T22:06:12.518Z,100853.75
2022-08-16T22:08:49.256Z,100860.41
2022-08-16T22:11:20.313Z,100857.34
2022-08-16T22:13:57.953Z,100855.47
2022-08-16T22:16:30.257Z,100859.88
2022-08-16T22:19:00.089Z,100858.50
2022-08-16T22:21:28.516Z,100862.88
2022-08-16T22:23:58.668Z,100859.06
2022-08-16T22:26:30.329Z,100856.06
2022-08-16T22:29:00.586Z,100849.44
2022-08-16T22:31:29.560Z,100856.88
2022-08-16T22:33:59.072Z,100850.25
2022-08-16T22:36:28.843Z,100856.88
2022-08-16T22:38:59.025Z,100845.06
2022-08-16T22:41:29.163Z,100853.31
2022-08-16T22:43:57.557Z,100849.19
2022-08-16T22:46:25.785Z,100846.69
2022-08-16T22:48:54.048Z,100852.50
2022-08-16T22:51:25.516Z,100851.94
2022-08-16T22:53:54.401Z,100861.91
2022-08-16T22:56:23.448Z,100858.03
2022-08-16T22:58:52.079Z,100861.34
2022-08-16T23:01:21.956Z,100860.78
2022-08-16T23:03:50.732Z,100869.03
2022-08-16T23:06:19.349Z,100862.44
2022-08-16T23:08:48.871Z,100870.16
2022-08-16T23:11:21.282Z,100868.53
2022-08-16T23:13:54.270Z,100872.09
2022-08-16T23:16:33.343Z,100872.91
2022-08-16T23:19:23.960Z,100867.97
2022-08-16T23:21:52.918Z,100872.09
2022-08-16T23:24:24.422Z,100875.13
2022-08-16T23:26:52.586Z,100874.03
2022-08-16T23:29:25.254Z,100868.78
2022-08-16T23:31:59.025Z,100865.22
2022-08-16T23:34:29.601Z,100872.09
2022-08-16T23:36:58.014Z,100873.47
2022-08-16T23:39:27.815Z,100884.50
2022-08-16T23:41:56.066Z,100887.78
2022-08-16T23:44:56.699Z,100882.84
2022-08-16T23:47:12.260Z,100889.47
2022-08-16T23:50:00.769Z,100894.13
2022-08-16T23:52:53.985Z,100893.84
2022-08-16T23:55:19.030Z,100894.97
2022-08-16T23:57:47.612Z,100900.16
